Tiempo atmosférico en la estación meteorológica de Fraga, Huesca (170 m.)



Fecha
DESCASC
Temp. máxima en grados centígrados (hora)
DESCASC
Temp. mínima en grados centígrados (hora)
DESCASC
Temp. media en grados centígrados
DESCASC
Racha de viento máxima en m/sg (hora)
DESCASC
Velocidad máxima media en intervalos de 10 minutos(hora)
DESCASC
Precipitaciones diarias en mm
DESCASC
Precipitaciones de 00:00 a 06:00 en mm
DESCASC
Precipitaciones de 06:00 a 12:00 en mm
DESCASC
Precipitaciones de 12:00 a 18:00 en mm
DESCASC
Precipitaciones de 18:00 a 24:00 en mm
DESCASC
28-05-2020 28.8 (16:30) 17.1 (06:50) 22.9 8.61 (18:50) 5.56 (19:00) 0 0 0 0 0
27-05-2020 28.5 (16:50) 18.4 (06:40) 23.4 10.56 (18:50) 5.83 (18:50) 0 0 0 0 0
26-05-2020 29.6 (17:40) 18 (05:10) 23.8 6.39 (21:40) 4.44 (22:10) 0 0 0 0 0
25-05-2020 24.8 (16:30) 16.7 (06:40) 20.8 8.33 (00:10) 5.28 (00:20) 3.8 2.6 1.2 0 0
24-05-2020 27.4 (18:20) 15.7 (00:00) 21.5 8.61 (21:30) 5.56 (23:59) 0 0 0 0 0
23-05-2020 31.5 (18:40) 17.4 (00:00) 24.4 9.17 (20:00) 6.11 (20:00) 0 0 0 0 0
22-05-2020 33.4 (17:20) 15.5 (00:00) 24.5 10.28 (19:10) 6.11 (18:50) 0 0 0 0 0
21-05-2020 31.6 (17:10) 15.9 (00:00) 23.8 6.11 (00:10) 3.89 (00:10) 0 0 0 0 0
20-05-2020 31.3 (18:40) 15.4 (00:00) 23.3 7.78 (23:20) 4.17 (23:20) 0 0 0 0 0
19-05-2020 29.7 (17:50) 13.2 (00:00) 21.5 8.33 (14:50) 5 (19:00) 0 0 0 0 0
18-05-2020 27.4 (17:40) 11.8 (00:00) 19.6 7.5 (18:10) 4.44 (18:10) 0 0 0 0 0
17-05-2020 24.9 (17:20) 11.3 (00:00) 18.1 8.89 (17:50) 6.11 (19:30) 0 0 0 0 0
16-05-2020 21 (16:30) 11.7 (00:00) 16.3 8.89 (02:30) 5.56 (14:40) 26 8.8 9.6 0.8 6.8
15-05-2020 20.7 (18:20) 12.7 (00:00) 16.7 5.28 (23:10) 4.17 (23:10) 2.6 2 0.6 0 0
14-05-2020 17.4 (11:50) 11.6 (00:00) 14.5 5.83 (13:30) 4.17 (13:30) 28.6 0 0 17.4 11.2
13-05-2020 22.5 (16:00) 13.3 (00:00) 17.9 8.89 (14:50) 5.28 (16:10) 3.4 3.2 0.2 0 0
12-05-2020 21.3 (17:00) 12.2 (00:00) 16.7 5.83 (21:50) 3.89 (21:50) 1.4 0 0 0 1.4
11-05-2020 23.9 (18:00) 13 (00:00) 18.4 12.5 (12:40) 8.33 (10:30) 0 0 0 0 0
10-05-2020 18.3 (00:00) 13.6 (00:00) 15.9 13.06 (20:50) 7.22 (21:00) 24.8 0 11.8 8.8 4.2
09-05-2020 24.7 (15:10) 13.2 (00:00) 19 10 (19:00) 6.11 (19:00) 0.2 0 0 0 0.2
08-05-2020 27.7 (15:20) 13.7 (00:00) 20.7 13.06 (17:00) 7.78 (17:10) 0 0 0 0 0
07-05-2020 26.9 (16:10) 14.6 (00:00) 20.8 10.28 (18:10) 6.11 (12:40) 0 0 0 0 0
06-05-2020 29.9 (16:40) 12.8 (00:00) 21.3 8.33 (16:40) 5 (21:50) 0 0 0 0 0
05-05-2020 27.7 (19:00) 14.8 (00:00) 21.3 8.06 (01:00) 4.17 (00:30) 0 0 0 0 0
04-05-2020 29.5 (16:00) 14.2 (00:00) 21.8 10.83 (17:50) 6.11 (17:20) 0 0 0 0 0
03-05-2020 29.2 (18:10) 14.7 (00:00) 22 8.89 (23:30) 5.83 (23:30) 0 0 0 0 0
02-05-2020 27.5 (16:50) 16.4 (00:00) 21.9 12.22 (11:50) 8.33 (11:40) 0 0 0 0 0
01-05-2020 27 (17:30) 14.2 (00:00) 20.6 15.56 (17:30) 9.72 (16:30) 0.4 0 0 0 0.4
30-04-2020 22.8 (18:50) 14.4 (00:00) 18.6 14.44 (12:50) 9.44 (12:50) 0 0 0 0 0
29-04-2020 23.4 (17:20) 9.7 (00:00) 16.5 8.61 (16:50) 5.83 (12:20) 0 0 0 0 0

Gráficas

Temp. máximas Temp. mínimas Temp. medias Precipitaciones Rachas de viento máximas Velocidades máximas media en intervalos de 10 minutos

Datos horarios

Fecha y hora oficial Temperatura (ºC) Velocidad del viento (km/h) Dirección del viento Racha (km/h) Dirección de racha Precipitación (mm) Presión (hPa) Tendencia (hPa) Humedad (%)
2020-05-28 23:00:00 21.1 15 Sudeste 27 Sudeste 0 -- -- 69
2020-05-28 22:00:00 22.2 14 Sudeste 27 Sur 0 -- -- 63
2020-05-28 21:00:00 23.7 14 Sudeste 26 Sudeste 0 -- -- 57
2020-05-28 20:00:00 25.5 12 Sur 31 Sudeste 0 -- -- 49
2020-05-28 19:00:00 26.7 20 Sur 31 Sudeste 0 -- -- 43
2020-05-28 18:00:00 27.9 17 Sudeste 29 Sudeste 0 -- -- 37
2020-05-28 17:00:00 28.3 14 Sudeste 23 Sudeste 0 -- -- 38
2020-05-28 16:00:00 28.7 13 Sur 26 Sudeste 0 -- -- 32
2020-05-28 15:00:00 27.9 10 Sudeste 27 Sudeste 0 -- -- 33
2020-05-28 14:00:00 27 5 Este 14 Sudeste 0 -- -- 39
2020-05-28 13:00:00 25.8 6 Sudeste 14 Sudeste 0 -- -- 39
2020-05-28 12:00:00 24.3 4 Oeste 11 Norte 0 -- -- 48
2020-05-28 11:00:00 22.7 4 Nordeste 10 Nordeste 0 -- -- 57
2020-05-28 10:00:00 20.9 4 Sudoeste 8 Sudeste 0 -- -- 63
2020-05-28 09:00:00 19.3 3 Nordeste 5 Nordeste 0 -- -- 69
2020-05-28 08:00:00 17.2 3 Oeste 5 Oeste 0 -- -- 77
2020-05-28 07:00:00 17.1 0 Calma 10 Sudeste 0 -- -- 74
2020-05-28 06:00:00 17.6 8 Sudeste 15 Sudeste 0 -- -- 74
2020-05-28 05:00:00 17.9 4 Este 8 Nordeste 0 -- -- 66
2020-05-28 04:00:00 18 4 Este 13 Sudeste 0 -- -- 67
2020-05-28 03:00:00 18.5 7 Sudeste 16 Sudeste 0 -- -- 62
2020-05-28 02:00:00 19.1 8 Sudeste 15 Sur 0 -- -- 57
2020-05-28 01:00:00 19.9 7 Sudeste 15 Sudeste 0 -- -- 55
2020-05-28 00:00:00 20.4 5 Sudeste 18 Sudeste 0 -- -- 52
2020-05-27 23:00:00 21.3 12 Sudeste 26 Sudeste 0 -- -- 48
2020-05-27 22:00:00 22.5 15 Sudeste 28 Sudeste 0 -- -- 43
2020-05-27 21:00:00 23.7 17 Sudeste 33 Sudeste 0 -- -- 40
2020-05-27 20:00:00 25.1 17 Sudeste 32 Sur 0 -- -- 41
2020-05-27 19:00:00 26.3 20 Sudeste 38 Sur 0 -- -- 41
2020-05-27 18:00:00 27.7 14 Sur 30 Sur 0 -- -- 41
2020-05-27 17:00:00 28.1 14 Sudeste 25 Sur 0 -- -- 41
2020-05-27 16:00:00 28.4 6 Sur 28 Sur 0 -- -- 40
2020-05-27 15:00:00 28 10 Sudoeste 18 Sudoeste 0 -- -- 39
2020-05-27 14:00:00 26.9 6 Sur 21 Sur 0 -- -- 45
2020-05-27 13:00:00 25.8 13 Sur 22 Sudoeste 0 -- -- 46
2020-05-27 12:00:00 24 6 Sudoeste 11 Sudoeste 0 -- -- 62
2020-05-27 11:00:00 22.9 3 Sudeste 8 Sudeste 0 -- -- 60
2020-05-27 10:00:00 20.9 3 Sur 8 Sur 0 -- -- 66
2020-05-27 09:00:00 19.9 3 Sudeste 6 Sudeste 0 -- -- 65
2020-05-27 08:00:00 19.1 2 Sur 5 Sur 0 -- -- 71
2020-05-27 07:00:00 18.5 2 Nordeste 6 Oeste 0 -- -- 76
2020-05-27 06:00:00 19 0 Calma 4 Nordeste 0 -- -- 68
2020-05-27 05:00:00 19 0 Calma 6 Oeste 0 -- -- 66
2020-05-27 04:00:00 20 4 Sur 11 Este 0 -- -- 65
2020-05-27 03:00:00 20.9 8 Sudeste 13 Sudeste 0 -- -- 58
2020-05-27 02:00:00 21.3 10 Este 22 Sudeste 0 -- -- 53
2020-05-27 01:00:00 22.1 9 Sudeste 18 Sur 0 -- -- 54
2020-05-27 00:00:00 22.7 12 Sudeste 21 Sudeste 0 -- -- 55
2020-05-26 23:00:00 23.1 11 Sudeste 23 Sudeste 0 -- -- 54
2020-05-26 22:00:00 23.9 14 Sudeste 23 Sudeste 0 -- -- 53
2020-05-26 21:00:00 25.7 11 Sudeste 22 Sudeste 0 -- -- 49
2020-05-26 20:00:00 27.7 11 Sur 21 Sudeste 0 -- -- 45
2020-05-26 19:00:00 28.8 8 Sur 14 Sur 0 -- -- 39
2020-05-26 18:00:00 29.6 3 Noroeste 14 Sudoeste 0 -- -- 41
2020-05-26 17:00:00 28.6 5 Sudeste 19 Sudoeste 0 -- -- 42
2020-05-26 16:00:00 28.3 10 Sur 19 Sudeste 0 -- -- 42
2020-05-26 15:00:00 27.6 10 Sudoeste 17 Sudoeste 0 -- -- 44
2020-05-26 14:00:00 26.3 9 Sudeste 19 Sudeste 0 -- -- 47
2020-05-26 13:00:00 25.6 7 Sur 17 Sudeste 0 -- -- 46
2020-05-26 12:00:00 24.5 6 Sudoeste 20 Oeste 0 -- -- 59
2020-05-26 11:00:00 22.9 7 Sudoeste 21 Sudoeste 0 -- -- 67
2020-05-26 10:00:00 21.6 5 Sur 9 Sudeste 0 -- -- 75
2020-05-26 09:00:00 20.5 4 Sur 8 Sur 0 -- -- 79
2020-05-26 08:00:00 18.9 6 Sur 12 Sur 0 -- -- 87
2020-05-26 07:00:00 18 4 Sur 6 Sudeste 0 -- -- 88
2020-05-26 06:00:00 18.1 3 Este 8 Sur 0 -- -- 89
2020-05-26 05:00:00 18.2 3 Sur 4 Sur 0 -- -- 86
2020-05-26 04:00:00 18.8 3 Este 6 Este 0 -- -- 84
2020-05-26 03:00:00 19.2 3 Nordeste 5 Nordeste 0 -- -- 84
2020-05-26 02:00:00 19.3 0 Calma 5 Sudeste 0 -- -- 84
2020-05-26 01:00:00 19.3 3 Nordeste 9 Sur 0 -- -- 83
2020-05-26 00:00:00 19.9 6 Sudeste 16 Sudeste 0 -- -- 78
2020-05-25 23:00:00 20 7 Sudeste 23 Sudeste 0 -- -- 78
2020-05-25 22:00:00 20.7 14 Sudeste 23 Sudeste 0 -- -- 75
2020-05-25 21:00:00 22.1 11 Sudeste 17 Sudeste 0 -- -- 70
2020-05-25 20:00:00 23.5 8 Sur 15 Sur 0 -- -- 65
2020-05-25 19:00:00 24.7 7 Sur 15 Sur 0 -- -- 62
2020-05-25 18:00:00 24.4 6 Sur 21 Sur 0 -- -- 62
2020-05-25 17:00:00 23.9 12 Sur 23 Sur 0 -- -- 65
2020-05-25 16:00:00 23.9 8 Sudeste 16 Sur 0 -- -- 65
2020-05-25 15:00:00 22.9 9 Sudeste 16 Oeste 0 -- -- 69
2020-05-25 14:00:00 21.8 8 Sudoeste 15 Sudoeste 0 -- -- 76
2020-05-25 13:00:00 21 7 Sur 17 Sudeste 0 -- -- 77
2020-05-25 12:00:00 19.9 8 Este 18 Sudeste 0 -- -- 79
2020-05-25 11:00:00 19.6 5 Sudeste 10 Sudeste 0 -- -- 77
2020-05-25 10:00:00 19.7 5 Sur 12 Sudeste 0 -- -- 81
2020-05-25 09:00:00 18.7 3 Sudeste 6 Nordeste 0 -- -- 85
2020-05-25 08:00:00 16.8 5 Nordeste 13 Nordeste 0 -- -- 91
2020-05-25 07:00:00 16.7 12 Este 22 Sudeste 1.2 -- -- 90
2020-05-25 06:00:00 17.4 9 Este 17 Sudeste 2.6 -- -- 85
2020-05-25 05:00:00 18.5 10 Este 19 Sudeste 0 -- -- 74
2020-05-25 04:00:00 18.6 10 Sudeste 19 Sudeste 0 -- -- 74
2020-05-25 03:00:00 18.4 10 Este 19 Este 0 -- -- 77
2020-05-25 02:00:00 18.4 11 Este 27 Sudeste 0 -- -- 78
2020-05-25 01:00:00 18.9 19 Sudeste 30 Sudeste 0 -- -- 76
2020-05-25 00:00:00 19.6 20 Sudeste 28 Sudeste 0 -- -- 74
2020-05-24 23:00:00 20.2 14 Sudeste 26 Sur 0 -- -- 72
2020-05-24 22:00:00 20.8 13 Sur 31 Sudeste 0 -- -- 67
2020-05-24 21:00:00 22.6 13 Sudeste 28 Sudeste 0 -- -- 64
2020-05-24 20:00:00 24.7 15 Sudeste 27 Sudeste 0 -- -- 58
2020-05-24 19:00:00 26.7 11 Sudeste 19 Sudeste 0 -- -- 52
2020-05-24 18:00:00 27 8 Sur 15 Sudoeste 0 -- -- 49
2020-05-24 17:00:00 26.2 9 Sudeste 19 Sudeste 0 -- -- 49
2020-05-24 16:00:00 25.7 7 Sudeste 20 Sur 0 -- -- 50
2020-05-24 15:00:00 24.6 7 Sudoeste 15 Sur 0 -- -- 53
2020-05-24 14:00:00 22.8 5 Sudeste 14 Norte 0 -- -- 56
2020-05-24 13:00:00 21.3 4 Sudeste 12 Norte 0 -- -- 56
2020-05-24 12:00:00 20 3 Norte 13 Nordeste 0 -- -- 59
2020-05-24 11:00:00 19.1 3 Nordeste 6 Nordeste 0 -- -- 61
2020-05-24 10:00:00 17.2 0 Calma 10 Oeste 0 -- -- 64
2020-05-24 09:00:00 16.6 5 Sudoeste 11 Sur 0 -- -- 67
2020-05-24 08:00:00 16 6 Sur 10 Sur 0 -- -- 67
2020-05-24 07:00:00 15.7 4 Oeste 14 Oeste 0 -- -- 68
2020-05-24 06:00:00 15.8 7 Sudoeste 16 Sudoeste 0 -- -- 68
2020-05-24 05:00:00 16.3 5 Oeste 17 Sudoeste 0 -- -- 68
2020-05-24 04:00:00 16.8 8 Sudoeste 22 Sudoeste 0 -- -- 65
2020-05-24 03:00:00 17.2 9 Sudoeste 20 Sudoeste 0 -- -- 66
2020-05-24 02:00:00 17.6 10 Sudoeste 17 Sur 0 -- -- 65
2020-05-24 01:00:00 18.7 10 Sur 21 Sur 0 -- -- 62
2020-05-24 00:00:00 20.3 9 Sudoeste 15 Sudoeste 0 -- -- 59
2020-05-23 23:00:00 21.3 10 Sudoeste 24 Oeste 0 -- -- 57
2020-05-23 22:00:00 23.6 12 Oeste 28 Oeste 0 -- -- 52
2020-05-23 21:00:00 26.6 18 Oeste 31 Oeste 0 -- -- 47
2020-05-23 20:00:00 29.5 22 Oeste 33 Oeste 0 -- -- 44
2020-05-23 19:00:00 31.2 5 Noroeste 12 Noroeste 0 -- -- 45
2020-05-23 18:00:00 31.4 8 Noroeste 15 Noroeste 0 -- -- 43
2020-05-23 17:00:00 31.2 8 Nordeste 18 Nordeste 0 -- -- 43
2020-05-23 16:00:00 29.8 6 Norte 21 Noroeste 0 -- -- 48
2020-05-23 15:00:00 29.7 8 Norte 20 Norte 0 -- -- 47
2020-05-23 14:00:00 29 11 Sudoeste 26 Oeste 0 -- -- 47
2020-05-23 13:00:00 27.4 10 Oeste 21 Oeste 0 -- -- 49
2020-05-23 12:00:00 26.1 7 Sur 18 Sur 0 -- -- 57
2020-05-23 11:00:00 23.7 7 Sur 15 Sur 0 -- -- 62
2020-05-23 10:00:00 22.3 3 Sur 8 Sur 0 -- -- 62
2020-05-23 09:00:00 19.6 2 Norte 13 Noroeste 0 -- -- 66
2020-05-23 08:00:00 17.9 5 Noroeste 8 Oeste 0 -- -- 73
2020-05-23 07:00:00 17.6 2 Este 12 Este 0 -- -- 71
2020-05-23 06:00:00 17.9 4 Este 9 Este 0 -- -- 68
2020-05-23 05:00:00 18.8 0 Calma 15 Este 0 -- -- 67
2020-05-23 04:00:00 19.2 6 Este 14 Este 0 -- -- 64
2020-05-23 03:00:00 20.5 7 Este 15 Este 0 -- -- 63
2020-05-23 02:00:00 22 5 Este 22 Este 0 -- -- 60
2020-05-23 01:00:00 22.4 13 Sudeste 27 Sudeste 0 -- -- 57
2020-05-23 00:00:00 22.9 17 Sudeste 27 Sudeste 0 -- -- 57
2020-05-22 23:00:00 23.9 17 Sudeste 33 Sudeste 0 -- -- 54
2020-05-22 22:00:00 25.1 13 Sudeste 27 Sur 0 -- -- 50
2020-05-22 21:00:00 26.7 13 Sur 31 Sudeste 0 -- -- 48
2020-05-22 20:00:00 28.7 19 Sudeste 37 Sudeste 0 -- -- 40
2020-05-22 19:00:00 30.9 19 Sudeste 35 Sudeste 0 -- -- 32
2020-05-22 18:00:00 32.8 15 Sudeste 27 Sudeste 0 -- -- 31
2020-05-22 17:00:00 33.3 7 Este 19 Sudeste 0 -- -- 34
2020-05-22 16:00:00 32.6 6 Sur 16 Este 0 -- -- 34
2020-05-22 15:00:00 31.9 6 Sudeste 14 Sudeste 0 -- -- 37
2020-05-22 14:00:00 30.4 4 Este 13 Este 0 -- -- 42
2020-05-22 13:00:00 28.8 3 Este 9 Nordeste 0 -- -- 47
2020-05-22 12:00:00 27.1 4 Nordeste 12 Nordeste 0 -- -- 52
2020-05-22 11:00:00 24.7 4 Nordeste 9 Norte 0 -- -- 60
2020-05-22 10:00:00 21.3 3 Noroeste 6 Oeste 0 -- -- 73
2020-05-22 09:00:00 18.9 2 Oeste 6 Oeste 0 -- -- 80
2020-05-22 08:00:00 16.7 0 Calma 7 Oeste 0 -- -- 89
2020-05-22 07:00:00 15.6 2 Oeste 10 Noroeste 0 -- -- 89
2020-05-22 06:00:00 16.2 0 Calma 3 Sudoeste 0 -- -- 87
2020-05-22 05:00:00 17 0 Calma 6 Noroeste 0 -- -- 85
2020-05-22 04:00:00 17.6 3 Noroeste 5 Oeste 0 -- -- 84
2020-05-22 03:00:00 18.4 3 Oeste 8 Sudeste 0 -- -- 81
2020-05-22 02:00:00 19.7 4 Este 8 Este 0 -- -- 75
2020-05-22 01:00:00 20.8 3 Oeste 12 Sudeste 0 -- -- 71
2020-05-22 00:00:00 22.6 3 Nordeste 13 Sudeste 0 -- -- 61
2020-05-21 23:00:00 23.9 3 Este 17 Sudeste 0 -- -- 56
2020-05-21 22:00:00 24.9 9 Este 15 Este 0 -- -- 56
2020-05-21 21:00:00 26.8 9 Sudeste 16 Sudeste 0 -- -- 52
2020-05-21 20:00:00 29.1 6 Sudeste 12 Sudeste 0 -- -- 37
2020-05-21 19:00:00 29.4 5 Sudeste 9 Este 0 -- -- 34
2020-05-21 18:00:00 30.7 4 Sur 12 Sudeste 0 -- -- 34
2020-05-21 17:00:00 31.3 4 Sudoeste 16 Sur 0 -- -- 37
2020-05-21 16:00:00 30.5 6 Sur 17 Sudeste 0 -- -- 35
2020-05-21 15:00:00 29.3 8 Sur 15 Sudeste 0 -- -- 38
2020-05-21 14:00:00 28.1 4 Este 14 Sudoeste 0 -- -- 49
2020-05-21 13:00:00 26.5 5 Sudoeste 11 Sudoeste 0 -- -- 51
2020-05-21 12:00:00 24.6 6 Sur 12 Sur 0 -- -- 58
2020-05-21 11:00:00 22.8 4 Nordeste 9 Norte 0 -- -- 64
2020-05-21 10:00:00 20.3 3 Nordeste 7 Noroeste 0 -- -- 70
2020-05-21 09:00:00 18 4 Oeste 7 Oeste 0 -- -- 76
2020-05-21 08:00:00 16.4 2 Noroeste 8 Sur 0 -- -- 85
2020-05-21 07:00:00 16.5 5 Sur 8 Sur 0 -- -- 84
2020-05-21 06:00:00 16.8 4 Sudeste 8 Sudoeste 0 -- -- 83
2020-05-21 05:00:00 17.4 0 Calma 5 Oeste 0 -- -- 80
2020-05-21 04:00:00 18.4 0 Calma 6 Sudeste 0 -- -- 78
2020-05-21 03:00:00 19 2 Oeste 16 Este 0 -- -- 76
2020-05-21 02:00:00 21.2 8 Este 18 Este 0 -- -- 65
2020-05-21 01:00:00 22.1 7 Sudeste 22 Sudeste 0 -- -- 59
2020-05-21 00:00:00 23 14 Sudeste 28 Sudeste 0 -- -- 57
2020-05-20 23:00:00 23.6 12 Sudeste 23 Este 0 -- -- 55
2020-05-20 22:00:00 26.3 3 Nordeste 9 Este 0 -- -- 50
2020-05-20 21:00:00 28.1 6 Este 10 Nordeste 0 -- -- 40
2020-05-20 20:00:00 30.7 5 Nordeste 8 Noroeste 0 -- -- 39
2020-05-20 19:00:00 30.8 2 Este 16 Noroeste 0 -- -- 32
2020-05-20 18:00:00 31.1 4 Noroeste 19 Oeste 0 -- -- 34
2020-05-20 17:00:00 30.5 7 Sudoeste 16 Noroeste 0 -- -- 31
2020-05-20 16:00:00 30.1 10 Oeste 19 Noroeste 0 -- -- 35
2020-05-20 15:00:00 28.8 8 Oeste 16 Oeste 0 -- -- 42
2020-05-20 14:00:00 27.3 9 Noroeste 19 Oeste 0 -- -- 47
2020-05-20 13:00:00 25.4 7 Sur 14 Sur 0 -- -- 52
2020-05-20 12:00:00 23.4 5 Sudeste 13 Sur 0 -- -- 56
2020-05-20 11:00:00 21.9 4 Sudeste 11 Sur 0 -- -- 59
2020-05-20 10:00:00 19.7 4 Sudoeste 11 Oeste 0 -- -- 67
2020-05-20 09:00:00 18 3 Noroeste 6 Oeste 0 -- -- 72
2020-05-20 08:00:00 16.4 0 Calma 6 Sudoeste 0 -- -- 77
2020-05-20 07:00:00 15.4 3 Oeste 8 Sudoeste 0 -- -- 80
2020-05-20 06:00:00 15.9 4 Sudoeste 11 Sudoeste 0 -- -- 77
2020-05-20 05:00:00 16.6 6 Sudoeste 15 Sudoeste 0 -- -- 76
2020-05-20 04:00:00 17.4 9 Sudoeste 17 Sudoeste 0 -- -- 73
2020-05-20 03:00:00 18.2 4 Sudoeste 20 Sudoeste 0 -- -- 73
2020-05-20 02:00:00 19.4 4 Sudoeste 14 Sudoeste 0 -- -- 68
2020-05-20 01:00:00 20.9 4 Sudoeste 11 Sudoeste 0 -- -- 64
2020-05-20 00:00:00 22.1 0 Calma 5 Oeste 0 -- -- 61
2020-05-19 23:00:00 23.2 2 Oeste 21 Oeste 0 -- -- 57
2020-05-19 22:00:00 24.4 9 Oeste 17 Noroeste 0 -- -- 51
2020-05-19 21:00:00 26.4 9 Oeste 26 Oeste 0 -- -- 43
2020-05-19 20:00:00 28.6 16 Oeste 26 Oeste 0 -- -- 38
2020-05-19 19:00:00 29.5 18 Oeste 29 Oeste 0 -- -- 35
2020-05-19 18:00:00 29.6 15 Oeste 27 Oeste 0 -- -- 37
2020-05-19 17:00:00 29 10 Sudoeste 26 Oeste 0 -- -- 41
2020-05-19 16:00:00 28.2 14 Oeste 28 Oeste 0 -- -- 41
2020-05-19 15:00:00 27 14 Oeste 30 Oeste 0 -- -- 44
2020-05-19 14:00:00 25.5 10 Sudoeste 20 Sudoeste 0 -- -- 44
2020-05-19 13:00:00 24.1 9 Oeste 19 Sudoeste 0 -- -- 45
2020-05-19 12:00:00 22.3 9 Oeste 20 Oeste 0 -- -- 52
2020-05-19 11:00:00 20.3 5 Sudoeste 15 Sudoeste 0 -- -- 56
2020-05-19 10:00:00 17.9 3 Oeste 10 Oeste 0 -- -- 67
2020-05-19 09:00:00 15.9 2 Sudoeste 9 Oeste 0 -- -- 71
2020-05-19 08:00:00 14 4 Sudoeste 17 Oeste 0 -- -- 76
2020-05-19 07:00:00 13.2 7 Sudoeste 17 Sudoeste 0 -- -- 78
2020-05-19 06:00:00 13.7 6 Oeste 19 Sudoeste 0 -- -- 78
2020-05-19 05:00:00 14.4 8 Sudoeste 22 Sudoeste 0 -- -- 76
2020-05-19 04:00:00 15.4 11 Sudoeste 20 Sudoeste 0 -- -- 74
2020-05-19 03:00:00 16.1 10 Sudoeste 20 Oeste 0 -- -- 73
2020-05-19 02:00:00 17.2 12 Sudoeste 18 Sudoeste 0 -- -- 71
2020-05-19 01:00:00 18.2 6 Sur 12 Sudoeste 0 -- -- 69
2020-05-19 00:00:00 20 9 Oeste 25 Sudoeste 0 -- -- 62
2020-05-18 23:00:00 21.8 12 Sudoeste 22 Sudoeste 0 -- -- 54
2020-05-18 22:00:00 22.9 7 Sur 22 Sudoeste 0 -- -- 46
2020-05-18 21:00:00 24 8 Sudoeste 18 Sudoeste 0 -- -- 43
2020-05-18 20:00:00 26.2 9 Oeste 24 Sudoeste 0 -- -- 40
2020-05-18 19:00:00 26.7 12 Sudoeste 27 Oeste 0 -- -- 40
2020-05-18 18:00:00 27.3 11 Oeste 21 Oeste 0 -- -- 43
2020-05-18 17:00:00 26.7 8 Oeste 24 Oeste 0 -- -- 40
2020-05-18 16:00:00 25.9 8 Oeste 23 Sudoeste 0 -- -- 44
2020-05-18 15:00:00 24.5 10 Oeste 22 Oeste 0 -- -- 42
2020-05-18 14:00:00 23.4 10 Oeste 24 Oeste 0 -- -- 47
2020-05-18 13:00:00 22.1 10 Oeste 20 Oeste 0 -- -- 51
2020-05-18 12:00:00 20.3 10 Oeste 17 Oeste 0 -- -- 57
2020-05-18 11:00:00 18.2 8 Sudoeste 17 Sudoeste 0 -- -- 64
2020-05-18 10:00:00 16.1 3 Norte 8 Noroeste 0 -- -- 68
2020-05-18 09:00:00 14.3 3 Sudoeste 11 Sudoeste 0 -- -- 75
2020-05-18 08:00:00 12.7 3 Sudoeste 10 Sudoeste 0 -- -- 79
2020-05-18 07:00:00 11.8 4 Sudoeste 12 Sudoeste 0 -- -- 82
2020-05-18 06:00:00 12.3 10 Sudoeste 15 Sudoeste 0 -- -- 80
2020-05-18 05:00:00 12.8 4 Sudoeste 11 Sudoeste 0 -- -- 80
2020-05-18 04:00:00 13.5 6 Sudoeste 15 Sudoeste 0 -- -- 78
2020-05-18 03:00:00 14.5 8 Sudoeste 15 Sudoeste 0 -- -- 76
2020-05-18 02:00:00 15.4 5 Sudoeste 15 Sudoeste 0 -- -- 72
2020-05-18 01:00:00 16.5 8 Sudoeste 13 Sudoeste 0 -- -- 68
2020-05-18 00:00:00 17.5 9 Sudoeste 21 Sudoeste 0 -- -- 65
2020-05-17 23:00:00 18.5 12 Sudoeste 18 Sudoeste 0 -- -- 61
2020-05-17 22:00:00 19.8 6 Sudoeste 20 Sudoeste 0 -- -- 57
2020-05-17 21:00:00 21.4 9 Sudoeste 29 Oeste 0 -- -- 51
2020-05-17 20:00:00 23.3 20 Oeste 32 Oeste 0 -- -- 45
2020-05-17 19:00:00 24.2 15 Oeste 32 Sudoeste 0 -- -- 46
2020-05-17 18:00:00 24.7 11 Sudoeste 32 Oeste 0 -- -- 46
2020-05-17 17:00:00 24.5 21 Oeste 32 Oeste 0 -- -- 47
2020-05-17 16:00:00 23.6 15 Oeste 28 Oeste 0 -- -- 51
2020-05-17 15:00:00 22.9 17 Oeste 30 Oeste 0 -- -- 54
2020-05-17 14:00:00 21.7 15 Oeste 24 Sudoeste 0 -- -- 57
2020-05-17 13:00:00 20.5 11 Oeste 23 Oeste 0 -- -- 55
2020-05-17 12:00:00 18.8 11 Oeste 24 Sudoeste 0 -- -- 66
2020-05-17 11:00:00 16.8 9 Sudoeste 19 Sudoeste 0 -- -- 69
2020-05-17 10:00:00 15 4 Sur 14 Sudoeste 0 -- -- 77
2020-05-17 09:00:00 13.3 6 Sudoeste 15 Sur 0 -- -- 82
2020-05-17 08:00:00 11.9 9 Sur 13 Sur 0 -- -- 86
2020-05-17 07:00:00 11.3 6 Sur 10 Sudoeste 0 -- -- 89
2020-05-17 06:00:00 12.4 6 Oeste 14 Sudoeste 0 -- -- 89
2020-05-17 05:00:00 12.6 4 Sudoeste 13 Oeste 0 -- -- 93
2020-05-17 04:00:00 12.6 6 Oeste 13 Sudoeste 0 -- -- 91
2020-05-17 03:00:00 13.3 6 Sur 12 Sur 0 -- -- 90
2020-05-17 02:00:00 13.9 3 Sudeste 12 Este 0 -- -- 91
2020-05-17 01:00:00 14.1 5 Sudeste 10 Sur 0 -- -- 90
2020-05-17 00:00:00 14.5 7 Sudeste 10 Este 0 -- -- 87
2020-05-16 23:00:00 15.1 3 Sudeste 7 Sur 0 -- -- 86
2020-05-16 22:00:00 15.1 5 Sudoeste 15 Sur 0 -- -- 87
2020-05-16 21:00:00 15.8 5 Sur 12 Norte 0 -- -- 88
2020-05-16 20:00:00 16.3 5 Sur 17 Este 6.8 -- -- 85
2020-05-16 19:00:00 18.5 8 Este 16 Este 0 -- -- 77
2020-05-16 18:00:00 18.2 7 Sudeste 26 Oeste 0.8 -- -- 77
2020-05-16 17:00:00 20 11 Noroeste 23 Oeste 0 -- -- 66
2020-05-16 16:00:00 20.9 12 Sudoeste 29 Oeste 0 -- -- 62
2020-05-16 15:00:00 19.3 15 Oeste 29 Oeste 0 -- -- 66
2020-05-16 14:00:00 17.6 11 Sudoeste 24 Sudoeste 0 -- -- 77
2020-05-16 13:00:00 15.7 13 Oeste 22 Oeste 0 -- -- 82
2020-05-16 12:00:00 14.4 5 Oeste 10 Sudoeste 0 -- -- 94
2020-05-16 11:00:00 13 4 Noroeste 11 Noroeste 0.6 -- -- 95
2020-05-16 10:00:00 12 8 Oeste 12 Oeste 2 -- -- 95
2020-05-16 09:00:00 11.8 5 Oeste 10 Oeste 3.4 -- -- 95
2020-05-16 08:00:00 11.7 8 Noroeste 14 Noroeste 2.4 -- -- 94
2020-05-16 07:00:00 12 10 Noroeste 15 Oeste 1.2 -- -- 95
2020-05-16 06:00:00 12.9 8 Oeste 16 Noroeste 2.2 -- -- 94
2020-05-16 05:00:00 13.1 5 Sur 10 Sudoeste 1.4 -- -- 93
2020-05-16 04:00:00 13.5 0 Calma 11 Sudoeste 4.6 -- -- 91
2020-05-16 03:00:00 14.4 8 Sudoeste 32 Sudeste 0.6 -- -- 85
2020-05-16 02:00:00 14.5 7 Noroeste 27 Oeste 0 -- -- 84
2020-05-16 01:00:00 15.4 10 Oeste 18 Oeste 0 -- -- 83
2020-05-16 00:00:00 16.3 8 Noroeste 19 Noroeste 0 -- -- 82
2020-05-15 23:00:00 17.1 13 Noroeste 19 Oeste 0 -- -- 80
2020-05-15 22:00:00 17.8 3 Este 9 Norte 0 -- -- 74
2020-05-15 21:00:00 18.7 3 Nordeste 9 Este 0 -- -- 73
2020-05-15 20:00:00 19.4 3 Este 7 Nordeste 0 -- -- 68
2020-05-15 19:00:00 19.9 3 Este 12 Nordeste 0 -- -- 62
2020-05-15 18:00:00 19.9 5 Nordeste 18 Nordeste 0 -- -- 66
2020-05-15 17:00:00 19.8 9 Este 19 Nordeste 0 -- -- 63
2020-05-15 16:00:00 19.7 6 Sudoeste 17 Sudoeste 0 -- -- 64
2020-05-15 15:00:00 18.3 6 Sudeste 18 Sur 0 -- -- 72
2020-05-15 14:00:00 17.1 7 Sudeste 17 Sudeste 0 -- -- 74
2020-05-15 13:00:00 17.3 4 Este 13 Oeste 0 -- -- 76
2020-05-15 12:00:00 16.5 7 Oeste 18 Sudoeste 0 -- -- 77
2020-05-15 11:00:00 14.9 6 Oeste 17 Sudoeste 0 -- -- 86
2020-05-15 10:00:00 14.1 8 Sudoeste 16 Sudoeste 0 -- -- 89
2020-05-15 09:00:00 14 7 Oeste 12 Oeste 0.2 -- -- 90
2020-05-15 08:00:00 13 6 Sur 11 Sudoeste 0.2 -- -- 93
2020-05-15 07:00:00 12.8 5 Oeste 14 Oeste 0.2 -- -- 94
2020-05-15 06:00:00 13.3 3 Oeste 9 Sudoeste 0.6 -- -- 95
2020-05-15 05:00:00 13.3 4 Sudoeste 6 Sudoeste 0.4 -- -- 94
2020-05-15 04:00:00 13.4 3 Sudoeste 18 Oeste 0.2 -- -- 94
2020-05-15 03:00:00 13.4 5 Oeste 13 Oeste 0 -- -- 93
2020-05-15 02:00:00 13.6 8 Oeste 14 Oeste 0.4 -- -- 94
2020-05-15 01:00:00 13.6 5 Sudoeste 8 Sudoeste 0.4 -- -- 94
2020-05-15 00:00:00 13.6 4 Sur 10 Sudoeste 0 -- -- 93
2020-05-14 23:00:00 13.9 3 Sur 6 Oeste 0 -- -- 93
2020-05-14 22:00:00 13.7 4 Oeste 8 Noroeste 0.2 -- -- 94
2020-05-14 21:00:00 13.8 7 Noroeste 13 Noroeste 0.4 -- -- 94
2020-05-14 20:00:00 13.8 3 Noroeste 15 Noroeste 7 -- -- 93
2020-05-14 19:00:00 14.9 6 Nordeste 14 Este 3.6 -- -- 89
2020-05-14 18:00:00 16 2 Oeste 7 Sur 0 -- -- 84
2020-05-14 17:00:00 15.9 3 Oeste 9 Sur 0 -- -- 84
2020-05-14 16:00:00 15.2 3 Sur 9 Sur 1 -- -- 89
2020-05-14 15:00:00 15.1 5 Sur 18 Sur 2 -- -- 91
2020-05-14 14:00:00 15.2 5 Sur 21 Sur 14.4 -- -- 94
2020-05-14 13:00:00 16.9 12 Sur 19 Sur 0 -- -- 82
2020-05-14 12:00:00 17.4 8 Sur 13 Sur 0 -- -- 79
2020-05-14 11:00:00 16.7 4 Oeste 9 Noroeste 0 -- -- 80
2020-05-14 10:00:00 15.9 4 Noroeste 11 Oeste 0 -- -- 82
2020-05-14 09:00:00 13.9 4 Noroeste 11 Noroeste 0 -- -- 88
2020-05-14 08:00:00 12.4 4 Oeste 6 Noroeste 0 -- -- 94
2020-05-14 07:00:00 11.6 3 Sudoeste 10 Oeste 0 -- -- 94
2020-05-14 06:00:00 11.9 3 Oeste 7 Norte 0 -- -- 93
2020-05-14 05:00:00 12.1 3 Noroeste 5 Sur 0 -- -- 92
2020-05-14 04:00:00 12.8 3 Sudeste 8 Noroeste 0 -- -- 91
2020-05-14 03:00:00 13 5 Oeste 8 Oeste 0 -- -- 88
2020-05-14 02:00:00 14.2 0 Calma 5 Este 0 -- -- 85
2020-05-14 01:00:00 15.1 6 Este 10 Este 0 -- -- 80
2020-05-14 00:00:00 15.7 2 Oeste 6 Nordeste 0 -- -- 77
2020-05-13 23:00:00 16.9 4 Oeste 7 Sudoeste 0 -- -- 73
2020-05-13 22:00:00 18.1 3 Sudoeste 9 Nordeste 0 -- -- 66
2020-05-13 21:00:00 19.4 6 Norte 15 Norte 0 -- -- 59
2020-05-13 20:00:00 21 9 Norte 17 Noroeste 0 -- -- 54
2020-05-13 19:00:00 22.1 12 Noroeste 20 Oeste 0 -- -- 50
2020-05-13 18:00:00 21.6 11 Noroeste 28 Noroeste 0 -- -- 51
2020-05-13 17:00:00 22 10 Oeste 31 Oeste 0 -- -- 52
2020-05-13 16:00:00 22.5 18 Oeste 31 Oeste 0 -- -- 46
2020-05-13 15:00:00 21.2 14 Oeste 32 Oeste 0 -- -- 53
2020-05-13 14:00:00 19.8 14 Sudoeste 28 Oeste 0 -- -- 56
2020-05-13 13:00:00 19.4 18 Oeste 27 Oeste 0 -- -- 57
2020-05-13 12:00:00 18 6 Sudoeste 25 Oeste 0 -- -- 62
2020-05-13 11:00:00 17.7 16 Oeste 23 Oeste 0.2 -- -- 63
2020-05-13 10:00:00 16.4 4 Sudoeste 12 Noroeste 0 -- -- 78
2020-05-13 09:00:00 14.9 5 Noroeste 9 Noroeste 0 -- -- 86
2020-05-13 08:00:00 13.5 4 Noroeste 14 Noroeste 0 -- -- 90
2020-05-13 07:00:00 14.1 0 Calma 6 Sudoeste 0 -- -- 92
2020-05-13 06:00:00 14.5 3 Oeste 5 Oeste 0 -- -- 94
2020-05-13 05:00:00 14.8 3 Noroeste 10 Nordeste 0.8 -- -- 93
2020-05-13 04:00:00 15.2 4 Noroeste 6 Noroeste 1 -- -- 93
2020-05-13 03:00:00 15.4 0 Calma 6 Oeste 0 -- -- 93
2020-05-13 02:00:00 15.5 0 Calma 6 Este 0.4 -- -- 91
2020-05-13 01:00:00 15.7 5 Sur 12 Sur 1 -- -- 92
2020-05-13 00:00:00 15.9 4 Sur 9 Este 0.2 -- -- 92
2020-05-12 23:00:00 16.1 5 Este 14 Sur 0.8 -- -- 89
2020-05-12 22:00:00 17.1 9 Sudeste 21 Sudeste 0.4 -- -- 83
2020-05-12 21:00:00 18.4 6 Este 10 Sudeste 0 -- -- 76
2020-05-12 20:00:00 19.1 7 Sur 17 Sudeste 0 -- -- 71
2020-05-12 19:00:00 19.8 5 Sur 8 Sudeste 0 -- -- 60
2020-05-12 18:00:00 20.4 4 Sudoeste 11 Sudeste 0 -- -- 60
2020-05-12 17:00:00 21.3 4 Oeste 10 Oeste 0 -- -- 54
2020-05-12 16:00:00 19.8 4 Nordeste 15 Sudoeste 0 -- -- 61
2020-05-12 15:00:00 19.3 9 Sur 16 Noroeste 0 -- -- 64
2020-05-12 14:00:00 18.4 9 Nordeste 19 Nordeste 0 -- -- 66
2020-05-12 13:00:00 17.4 5 Norte 10 Noroeste 0 -- -- 67
2020-05-12 12:00:00 17.5 2 Sudoeste 15 Oeste 0 -- -- 67
2020-05-12 11:00:00 17.4 3 Norte 17 Noroeste 0 -- -- 70
2020-05-12 10:00:00 16 8 Noroeste 14 Sudoeste 0 -- -- 74
2020-05-12 09:00:00 14.9 10 Oeste 15 Oeste 0 -- -- 78
2020-05-12 08:00:00 14.6 3 Nordeste 20 Sur 0 -- -- 80
2020-05-12 07:00:00 12.2 5 Sur 10 Este 0 -- -- 88
2020-05-12 06:00:00 12.9 3 Sur 8 Sur 0 -- -- 83
2020-05-12 05:00:00 14 4 Sudoeste 6 Sur 0 -- -- 76
2020-05-12 04:00:00 14.5 3 Oeste 14 Noroeste 0 -- -- 72
2020-05-12 03:00:00 14.7 6 Noroeste 16 Oeste 0 -- -- 74
2020-05-12 02:00:00 15.6 8 Sudoeste 18 Sudoeste 0 -- -- 73
2020-05-12 01:00:00 15.8 4 Sur 13 Oeste 0 -- -- 74
2020-05-12 00:00:00 16.9 7 Oeste 13 Sudoeste 0 -- -- 69
2020-05-11 23:00:00 17.7 7 Oeste 15 Noroeste 0 -- -- 66
2020-05-11 22:00:00 19 14 Noroeste 33 Oeste 0 -- -- 61
2020-05-11 21:00:00 20.9 10 Noroeste 22 Oeste 0 -- -- 54
2020-05-11 20:00:00 22.4 15 Noroeste 27 Noroeste 0 -- -- 48
2020-05-11 19:00:00 23.4 21 Noroeste 31 Noroeste 0 -- -- 45
2020-05-11 18:00:00 23.9 16 Noroeste 40 Noroeste 0 -- -- 45
2020-05-11 17:00:00 23.2 21 Noroeste 34 Noroeste 0 -- -- 49
2020-05-11 16:00:00 22.6 27 Oeste 43 Oeste 0 -- -- 50
2020-05-11 15:00:00 21.1 19 Noroeste 30 Oeste 0 -- -- 56
2020-05-11 14:00:00 21 17 Oeste 42 Oeste 0 -- -- 56
2020-05-11 13:00:00 21.2 29 Oeste 45 Sudoeste 0 -- -- 57
2020-05-11 12:00:00 19.8 26 Oeste 41 Oeste 0 -- -- 60
2020-05-11 11:00:00 18.3 27 Oeste 41 Oeste 0 -- -- 66
2020-05-11 10:00:00 16.8 26 Oeste 39 Oeste 0 -- -- 71
2020-05-11 09:00:00 15.4 26 Oeste 37 Oeste 0 -- -- 74
2020-05-11 08:00:00 14.4 16 Oeste 32 Oeste 0 -- -- 76
2020-05-11 07:00:00 13.2 18 Oeste 31 Oeste 0 -- -- 83
2020-05-11 06:00:00 13.6 12 Oeste 26 Oeste 0 -- -- 83
2020-05-11 05:00:00 13.6 9 Oeste 21 Noroeste 0 -- -- 85
2020-05-11 04:00:00 13.5 4 Noroeste 19 Oeste 0 -- -- 87
2020-05-11 03:00:00 13.5 3 Oeste 18 Oeste 0 -- -- 88
2020-05-11 02:00:00 13.7 5 Oeste 23 Oeste 0 -- -- 88
2020-05-11 01:00:00 13.8 13 Oeste 20 Oeste 0 -- -- 90
2020-05-11 00:00:00 14 4 Oeste 17 Sudoeste 0 -- -- 90
2020-05-10 23:00:00 14.2 8 Sudoeste 18 Noroeste 0.4 -- -- 88
2020-05-10 22:00:00 14.3 15 Noroeste 36 Oeste 1.4 -- -- 88
2020-05-10 21:00:00 14.5 26 Oeste 47 Sudoeste 1 -- -- 88
2020-05-10 20:00:00 14.5 11 Sudoeste 21 Sudoeste 0.8 -- -- 92
2020-05-10 19:00:00 14.1 8 Sur 22 Sudoeste 0.6 -- -- 91
2020-05-10 18:00:00 14.8 6 Sudoeste 16 Sur 0.6 -- -- 91
2020-05-10 17:00:00 14.7 4 Sudoeste 18 Oeste 1.6 -- -- 93
2020-05-10 16:00:00 14.7 10 Noroeste 23 Noroeste 0.6 -- -- 89
2020-05-10 15:00:00 15.3 6 Sur 13 Sudoeste 0.8 -- -- 90
2020-05-10 14:00:00 14.8 5 Nordeste 8 Nordeste 3.4 -- -- 94
2020-05-10 13:00:00 14.3 2 Sudeste 14 Noroeste 1.8 -- -- 92
2020-05-10 12:00:00 13.8 5 Sudoeste 25 Sur 5.8 -- -- 94
2020-05-10 11:00:00 13.7 14 Noroeste 31 Noroeste 4.6 -- -- 91
2020-05-10 10:00:00 14.9 17 Oeste 33 Oeste 1.4 -- -- 84
2020-05-10 09:00:00 17.2 3 Oeste 11 Nordeste 0 -- -- 86
2020-05-10 08:00:00 16.9 7 Este 12 Nordeste 0 -- -- 86
2020-05-10 07:00:00 17 6 Este 16 Este 0 -- -- 85
2020-05-10 06:00:00 16.9 6 Este 13 Este 0 -- -- 86
2020-05-10 05:00:00 16.6 6 Este 15 Este 0 -- -- 87
2020-05-10 04:00:00 16.7 9 Nordeste 21 Nordeste 0 -- -- 86
2020-05-10 03:00:00 16.7 14 Nordeste 22 Nordeste 0 -- -- 85
2020-05-10 02:00:00 17.1 14 Este 19 Este 0 -- -- 83
2020-05-10 01:00:00 17.4 11 Este 15 Nordeste 0 -- -- 80
2020-05-10 00:00:00 18.3 5 Sudeste 19 Nordeste 0 -- -- 75
2020-05-09 23:00:00 18.4 8 Este 28 Este 0 -- -- 76
2020-05-09 22:00:00 18.8 10 Sudeste 24 Sudeste 0 -- -- 74
2020-05-09 21:00:00 19.6 12 Sudeste 23 Sudeste 0 -- -- 70
2020-05-09 20:00:00 20.3 10 Sudeste 31 Este 0 -- -- 72
2020-05-09 19:00:00 20.4 22 Sudeste 36 Sudeste 0.2 -- -- 72
2020-05-09 18:00:00 20.6 16 Sudeste 27 Sudeste 0 -- -- 68
2020-05-09 17:00:00 21.8 9 Sudeste 31 Sudeste 0 -- -- 62
2020-05-09 16:00:00 23.3 16 Sur 32 Sur 0 -- -- 54
2020-05-09 15:00:00 24.6 17 Sur 35 Sur 0 -- -- 50
2020-05-09 14:00:00 24.3 16 Sudeste 31 Sudeste 0 -- -- 51
2020-05-09 13:00:00 22.9 8 Sudeste 20 Sur 0 -- -- 49
2020-05-09 12:00:00 20.9 5 Este 18 Nordeste 0 -- -- 57
2020-05-09 11:00:00 19.6 8 Este 17 Nordeste 0 -- -- 68
2020-05-09 10:00:00 16.1 8 Noroeste 13 Sudoeste 0 -- -- 78
2020-05-09 09:00:00 14.7 9 Nordeste 24 Sudoeste 0 -- -- 85
2020-05-09 08:00:00 14.1 15 Nordeste 27 Nordeste 0 -- -- 89
2020-05-09 07:00:00 13.6 4 Noroeste 32 Oeste 0 -- -- 82
2020-05-09 06:00:00 13.9 3 Oeste 10 Sur 0 -- -- 77
2020-05-09 05:00:00 15 6 Sudeste 13 Sudeste 0 -- -- 77
2020-05-09 04:00:00 15.5 7 Sudeste 13 Sudeste 0 -- -- 75
2020-05-09 03:00:00 15.4 4 Este 7 Este 0 -- -- 65
2020-05-09 02:00:00 16.2 3 Sudeste 19 Nordeste 0 -- -- 63
2020-05-09 01:00:00 16.9 12 Nordeste 19 Este 0 -- -- 59
2020-05-09 00:00:00 17.9 5 Este 17 Sur 0 -- -- 66
2020-05-08 23:00:00 18.6 4 Este 22 Sudeste 0 -- -- 66
2020-05-08 22:00:00 19.6 13 Sudeste 36 Sudeste 0 -- -- 60
2020-05-08 21:00:00 21.2 12 Sudeste 34 Sur 0 -- -- 55
2020-05-08 20:00:00 23.8 14 Sudeste 35 Sur 0 -- -- 45
2020-05-08 19:00:00 26 15 Sur 27 Sudeste 0 -- -- 31
2020-05-08 18:00:00 25.9 19 Sudeste 46 Sudeste 0 -- -- 35
2020-05-08 17:00:00 26.2 26 Sudeste 47 Sur 0 -- -- 31
2020-05-08 16:00:00 26.7 25 Sudeste 43 Sur 0 -- -- 35
2020-05-08 15:00:00 27.6 16 Nordeste 30 Nordeste 0 -- -- 41
2020-05-08 14:00:00 25.3 13 Nordeste 27 Nordeste 0 -- -- 46
2020-05-08 13:00:00 24.5 17 Este 27 Nordeste 0 -- -- 51
2020-05-08 12:00:00 23 10 Sudeste 23 Nordeste 0 -- -- 55
2020-05-08 11:00:00 21.3 8 Sudeste 20 Sudeste 0 -- -- 61
2020-05-08 10:00:00 18.7 6 Sur 12 Sur 0 -- -- 73
2020-05-08 09:00:00 16.5 5 Sur 10 Sur 0 -- -- 80
2020-05-08 08:00:00 15.1 3 Sur 11 Este 0 -- -- 80
2020-05-08 07:00:00 13.8 0 Calma 5 Nordeste 0 -- -- 81
2020-05-08 06:00:00 14.7 0 Calma 6 Este 0 -- -- 80
2020-05-08 05:00:00 15.6 4 Sudeste 9 Este 0 -- -- 79
2020-05-08 04:00:00 16 0 Calma 5 Sudoeste 0 -- -- 76
2020-05-08 03:00:00 16.6 0 Calma 7 Sudeste 0 -- -- 72
2020-05-08 02:00:00 17.4 4 Este 13 Sudeste 0 -- -- 68
2020-05-08 01:00:00 18.3 5 Sudeste 17 Sudeste 0 -- -- 65
2020-05-08 00:00:00 19.1 9 Este 23 Este 0 -- -- 60
2020-05-07 23:00:00 20.2 11 Sudeste 26 Sudeste 0 -- -- 53
2020-05-07 22:00:00 20.8 12 Sudeste 33 Sur 0 -- -- 50
2020-05-07 21:00:00 21.7 16 Sudeste 30 Sur 0 -- -- 48
2020-05-07 20:00:00 23.6 16 Sudeste 33 Sudeste 0 -- -- 45
2020-05-07 19:00:00 25 19 Sudeste 37 Sur 0 -- -- 41
2020-05-07 18:00:00 26 20 Sudeste 33 Sur 0 -- -- 40
2020-05-07 17:00:00 26.5 15 Sudeste 32 Sur 0 -- -- 41
2020-05-07 16:00:00 26.5 22 Sur 36 Sudeste 0 -- -- 40
2020-05-07 15:00:00 26.3 16 Sudeste 36 Sudeste 0 -- -- 43
2020-05-07 14:00:00 26.4 18 Sudeste 32 Sur 0 -- -- 43
2020-05-07 13:00:00 25.9 15 Sudeste 33 Sudeste 0 -- -- 45
2020-05-07 12:00:00 24.5 12 Sudeste 25 Sudeste 0 -- -- 47
2020-05-07 11:00:00 22.6 4 Sudeste 12 Sur 0 -- -- 54
2020-05-07 10:00:00 19.7 6 Nordeste 10 Nordeste 0 -- -- 68
2020-05-07 09:00:00 17.4 3 Oeste 5 Oeste 0 -- -- 74
2020-05-07 08:00:00 15.3 2 Sudoeste 7 Sur 0 -- -- 82
2020-05-07 07:00:00 15 3 Sudeste 6 Sudeste 0 -- -- 81
2020-05-07 06:00:00 15.3 5 Sudoeste 9 Sudeste 0 -- -- 81
2020-05-07 05:00:00 16.1 5 Sudoeste 8 Este 0 -- -- 78
2020-05-07 04:00:00 16.9 4 Este 7 Este 0 -- -- 74
2020-05-07 03:00:00 17.9 4 Sudoeste 17 Este 0 -- -- 69
2020-05-07 02:00:00 18.6 12 Este 19 Nordeste 0 -- -- 67
2020-05-07 01:00:00 20.2 7 Este 29 Sudeste 0 -- -- 59
2020-05-07 00:00:00 21.1 15 Sudeste 27 Sudeste 0 -- -- 56
2020-05-06 23:00:00 21.7 15 Sudeste 26 Sudeste 0 -- -- 55
2020-05-06 22:00:00 22.6 17 Sudeste 28 Sudeste 0 -- -- 52
2020-05-06 21:00:00 23.7 10 Sudeste 29 Sudeste 0 -- -- 52
2020-05-06 20:00:00 26 13 Sudeste 26 Sudeste 0 -- -- 45
2020-05-06 19:00:00 28.9 9 Nordeste 20 Nordeste 0 -- -- 31
2020-05-06 18:00:00 29.7 12 Nordeste 21 Nordeste 0 -- -- 32
2020-05-06 17:00:00 29.5 10 Nordeste 30 Noroeste 0 -- -- 32
2020-05-06 16:00:00 29.3 14 Oeste 25 Oeste 0 -- -- 27
2020-05-06 15:00:00 27.9 8 Noroeste 17 Este 0 -- -- 38
2020-05-06 14:00:00 27.3 7 Nordeste 13 Norte 0 -- -- 45
2020-05-06 13:00:00 25 4 Oeste 10 Sudeste 0 -- -- 48
2020-05-06 12:00:00 23.1 3 Este 11 Este 0 -- -- 54
2020-05-06 11:00:00 20.7 4 Sudoeste 8 Sudoeste 0 -- -- 58
2020-05-06 10:00:00 19 3 Sudeste 6 Sur 0 -- -- 63
2020-05-06 09:00:00 15.6 2 Oeste 4 Norte 0 -- -- 80
2020-05-06 08:00:00 13.8 0 Calma 3 Sudoeste 0 -- -- 86
2020-05-06 07:00:00 13.1 0 Calma 4 Oeste 0 -- -- 87
2020-05-06 06:00:00 13.4 3 Oeste 5 Noroeste 0 -- -- 88
2020-05-06 05:00:00 13.9 0 Calma 9 Oeste 0 -- -- 87
2020-05-06 04:00:00 14.4 2 Oeste 5 Oeste 0 -- -- 87
2020-05-06 03:00:00 15.7 3 Noroeste 6 Oeste 0 -- -- 85
2020-05-06 02:00:00 16.9 2 Oeste 8 Oeste 0 -- -- 80
2020-05-06 01:00:00 18.2 3 Noroeste 6 Oeste 0 -- -- 74
2020-05-06 00:00:00 20 0 Calma 8 Este 0 -- -- 65
2020-05-05 23:00:00 22.1 3 Sudeste 9 Este 0 -- -- 54
2020-05-05 22:00:00 23.6 5 Este 9 Este 0 -- -- 48
2020-05-05 21:00:00 25.4 6 Este 8 Este 0 -- -- 43
2020-05-05 20:00:00 26.7 4 Este 10 Este 0 -- -- 43
2020-05-05 19:00:00 27.7 4 Nordeste 12 Sur 0 -- -- 42
2020-05-05 18:00:00 26.8 8 Sudeste 12 Sudeste 0 -- -- 42
2020-05-05 17:00:00 27 6 Nordeste 13 Nordeste 0 -- -- 50
2020-05-05 16:00:00 26.4 5 Este 15 Sudeste 0 -- -- 53
2020-05-05 15:00:00 25 8 Sudeste 13 Sudeste 0 -- -- 59
2020-05-05 14:00:00 25.3 0 Calma 12 Nordeste 0 -- -- 55
2020-05-05 13:00:00 24.8 3 Nordeste 12 Este 0 -- -- 58
2020-05-05 12:00:00 23.3 4 Norte 8 Norte 0 -- -- 60
2020-05-05 11:00:00 21.6 3 Norte 8 Noroeste 0 -- -- 66
2020-05-05 10:00:00 19.7 3 Norte 7 Norte 0 -- -- 69
2020-05-05 09:00:00 16.8 8 Noroeste 13 Noroeste 0 -- -- 73
2020-05-05 08:00:00 14.8 4 Sudoeste 7 Sudoeste 0 -- -- 81
2020-05-05 07:00:00 14.9 0 Calma 7 Noroeste 0 -- -- 76
2020-05-05 06:00:00 16.1 3 Norte 8 Este 0 -- -- 73
2020-05-05 05:00:00 16.6 3 Sudoeste 5 Sur 0 -- -- 72
2020-05-05 04:00:00 17.6 6 Este 15 Este 0 -- -- 63
2020-05-05 03:00:00 18.5 6 Este 20 Sudeste 0 -- -- 63
2020-05-05 02:00:00 19.1 9 Este 26 Sudeste 0 -- -- 68
2020-05-05 01:00:00 19.5 15 Sudeste 29 Sudeste 0 -- -- 66
2020-05-05 00:00:00 20.4 12 Sudeste 32 Sudeste 0 -- -- 57
2020-05-04 23:00:00 21.8 17 Sudeste 33 Sudeste 0 -- -- 49
2020-05-04 22:00:00 22.1 9 Este 36 Este 0 -- -- 49
2020-05-04 21:00:00 22.7 13 Sudeste 36 Sudeste 0 -- -- 52
2020-05-04 20:00:00 23.9 17 Sudeste 32 Sudeste 0 -- -- 51
2020-05-04 19:00:00 24.9 17 Sudeste 36 Sudeste 0 -- -- 52
2020-05-04 18:00:00 25.8 22 Sudeste 39 Sudeste 0 -- -- 52
2020-05-04 17:00:00 28.2 20 Sudeste 37 Sudeste 0 -- -- 45
2020-05-04 16:00:00 29.5 15 Sudeste 32 Sudeste 0 -- -- 40
2020-05-04 15:00:00 29 16 Sudeste 33 Sudeste 0 -- -- 40
2020-05-04 14:00:00 28 13 Sudeste 27 Sudeste 0 -- -- 44
2020-05-04 13:00:00 26.4 12 Este 21 Este 0 -- -- 54
2020-05-04 12:00:00 24.6 10 Este 16 Este 0 -- -- 53
2020-05-04 11:00:00 22.4 5 Nordeste 14 Nordeste 0 -- -- 60
2020-05-04 10:00:00 20.2 9 Nordeste 13 Nordeste 0 -- -- 69
2020-05-04 09:00:00 16.6 0 Calma 4 Oeste 0 -- -- 84
2020-05-04 08:00:00 14.6 2 Oeste 5 Sur 0 -- -- 89
2020-05-04 07:00:00 14.8 3 Sur 5 Sur 0 -- -- 87
2020-05-04 06:00:00 15 2 Noroeste 14 Nordeste 0 -- -- 86
2020-05-04 05:00:00 16 10 Nordeste 13 Nordeste 0 -- -- 83
2020-05-04 04:00:00 17 5 Este 21 Nordeste 0 -- -- 79
2020-05-04 03:00:00 17.2 16 Nordeste 24 Este 0 -- -- 80
2020-05-04 02:00:00 18.4 17 Nordeste 29 Nordeste 0 -- -- 76
2020-05-04 01:00:00 20.1 12 Nordeste 21 Sudeste 0 -- -- 67
2020-05-04 00:00:00 21.1 13 Sudeste 32 Sudeste 0 -- -- 58
2020-05-03 23:00:00 21.9 15 Sudeste 30 Sudeste 0 -- -- 57
2020-05-03 22:00:00 22.5 17 Sudeste 28 Sudeste 0 -- -- 58
2020-05-03 21:00:00 23.9 16 Sudeste 28 Sudeste 0 -- -- 56
2020-05-03 20:00:00 26.4 16 Sudeste 29 Sudeste 0 -- -- 51
2020-05-03 19:00:00 28.4 9 Este 18 Nordeste 0 -- -- 42
2020-05-03 18:00:00 29.1 9 Nordeste 19 Este 0 -- -- 39
2020-05-03 17:00:00 29 12 Nordeste 21 Nordeste 0 -- -- 40
2020-05-03 16:00:00 28.4 7 Nordeste 19 Nordeste 0 -- -- 41
2020-05-03 15:00:00 27.6 8 Nordeste 19 Este 0 -- -- 44
2020-05-03 14:00:00 26.2 8 Nordeste 15 Nordeste 0 -- -- 50
2020-05-03 13:00:00 25.1 4 Sudoeste 13 Este 0 -- -- 52
2020-05-03 12:00:00 22.6 5 Sur 13 Sur 0 -- -- 58
2020-05-03 11:00:00 21 3 Este 9 Este 0 -- -- 62
2020-05-03 10:00:00 18.8 4 Sur 8 Sur 0 -- -- 67
2020-05-03 09:00:00 16.7 3 Sudoeste 9 Sur 0 -- -- 77
2020-05-03 08:00:00 15.2 4 Sur 6 Sur 0 -- -- 82
2020-05-03 07:00:00 14.9 3 Noroeste 6 Norte 0 -- -- 81
2020-05-03 06:00:00 15.5 3 Norte 6 Norte 0 -- -- 79
2020-05-03 05:00:00 16.1 4 Noroeste 8 Oeste 0 -- -- 77
2020-05-03 04:00:00 16.6 4 Oeste 9 Oeste 0 -- -- 75
2020-05-03 03:00:00 17.7 5 Sudoeste 10 Oeste 0 -- -- 71
2020-05-03 02:00:00 19.2 9 Noroeste 19 Noroeste 0 -- -- 66
2020-05-03 01:00:00 19.9 12 Noroeste 19 Noroeste 0 -- -- 65
2020-05-03 00:00:00 21 12 Noroeste 19 Noroeste 0 -- -- 63
2020-05-02 23:00:00 21.7 10 Noroeste 17 Noroeste 0 -- -- 61
2020-05-02 22:00:00 22.6 12 Noroeste 15 Noroeste 0 -- -- 57
2020-05-02 21:00:00 24.2 7 Noroeste 15 Noroeste 0 -- -- 53
2020-05-02 20:00:00 25.9 10 Noroeste 23 Noroeste 0 -- -- 45
2020-05-02 19:00:00 27 14 Noroeste 33 Noroeste 0 -- -- 41
2020-05-02 18:00:00 27.4 20 Noroeste 33 Noroeste 0 -- -- 40
2020-05-02 17:00:00 27.4 21 Noroeste 33 Noroeste 0 -- -- 39
2020-05-02 16:00:00 27.1 24 Noroeste 41 Noroeste 0 -- -- 42
2020-05-02 15:00:00 27.2 23 Oeste 39 Oeste 0 -- -- 39
2020-05-02 14:00:00 26.5 24 Oeste 39 Oeste 0 -- -- 41
2020-05-02 13:00:00 25.5 30 Oeste 43 Oeste 0 -- -- 46
2020-05-02 12:00:00 24.3 26 Oeste 44 Oeste 0 -- -- 50
2020-05-02 11:00:00 22.6 26 Oeste 39 Oeste 0 -- -- 58
2020-05-02 10:00:00 21.4 19 Oeste 28 Oeste 0 -- -- 64
2020-05-02 09:00:00 19.5 14 Oeste 23 Oeste 0 -- -- 71
2020-05-02 08:00:00 17.9 7 Oeste 23 Noroeste 0 -- -- 75
2020-05-02 07:00:00 17.5 10 Noroeste 16 Noroeste 0 -- -- 75
2020-05-02 06:00:00 17.4 8 Noroeste 23 Oeste 0 -- -- 76
2020-05-02 05:00:00 16.4 13 Sudoeste 17 Sudoeste 0 -- -- 81
2020-05-02 04:00:00 16.7 5 Oeste 17 Oeste 0 -- -- 79
2020-05-02 03:00:00 17.9 11 Oeste 23 Oeste 0 -- -- 75
2020-05-02 02:00:00 18.3 12 Noroeste 28 Noroeste 0 -- -- 75
2020-05-02 01:00:00 18.1 14 Noroeste 22 Noroeste 0 -- -- 79
2020-05-02 00:00:00 18.3 4 Noroeste 16 Oeste 0 -- -- 79
2020-05-01 23:00:00 18 11 Noroeste 42 Noroeste 0.4 -- -- 86
2020-05-01 22:00:00 21.9 14 Norte 32 Noroeste 0 -- -- 60
2020-05-01 21:00:00 23.5 10 Noroeste 33 Oeste 0 -- -- 54
2020-05-01 20:00:00 25.4 19 Oeste 37 Oeste 0 -- -- 47
2020-05-01 19:00:00 26.5 28 Oeste 53 Oeste 0 -- -- 42
2020-05-01 18:00:00 26.7 33 Oeste 56 Noroeste 0 -- -- 42
2020-05-01 17:00:00 26.4 34 Oeste 53 Oeste 0 -- -- 44
2020-05-01 16:00:00 26.4 32 Oeste 49 Oeste 0 -- -- 44
2020-05-01 15:00:00 25.7 30 Oeste 48 Oeste 0 -- -- 44
2020-05-01 14:00:00 24.1 28 Oeste 51 Sudoeste 0 -- -- 48
2020-05-01 13:00:00 23.8 29 Oeste 47 Oeste 0 -- -- 48
2020-05-01 12:00:00 22.9 30 Oeste 43 Oeste 0 -- -- 51
2020-05-01 11:00:00 21.1 27 Oeste 39 Oeste 0 -- -- 54
2020-05-01 10:00:00 18.7 4 Sudoeste 10 Sur 0 -- -- 60
2020-05-01 09:00:00 16.4 2 Noroeste 4 Noroeste 0 -- -- 70
2020-05-01 08:00:00 14.7 5 Sur 17 Noroeste 0 -- -- 71
2020-05-01 07:00:00 15.3 10 Noroeste 19 Noroeste 0 -- -- 68
2020-05-01 06:00:00 14.4 3 Oeste 16 Oeste 0 -- -- 67
2020-05-01 05:00:00 14.4 4 Sudoeste 12 Sudoeste 0 -- -- 66
2020-05-01 04:00:00 14.4 3 Oeste 10 Oeste 0 -- -- 68
2020-05-01 03:00:00 15.2 5 Sudoeste 8 Sur 0 -- -- 64
2020-05-01 02:00:00 15.7 0 Calma 13 Noroeste 0 -- -- 61
2020-05-01 01:00:00 16.1 4 Nordeste 13 Noroeste 0 -- -- 59
2020-05-01 00:00:00 16.9 3 Norte 17 Oeste 0 -- -- 56
2020-04-30 23:00:00 17.4 9 Oeste 16 Oeste 0 -- -- 53
2020-04-30 22:00:00 18.2 8 Noroeste 14 Noroeste 0 -- -- 51
2020-04-30 21:00:00 20.1 9 Oeste 30 Oeste 0 -- -- 46
2020-04-30 20:00:00 22.1 20 Oeste 36 Oeste 0 -- -- 39
2020-04-30 19:00:00 22.7 23 Oeste 38 Oeste 0 -- -- 38
2020-04-30 18:00:00 22.3 23 Noroeste 39 Oeste 0 -- -- 42
2020-04-30 17:00:00 22.2 21 Oeste 40 Oeste 0 -- -- 40
2020-04-30 16:00:00 21.5 21 Oeste 35 Oeste 0 -- -- 43
2020-04-30 15:00:00 20.9 26 Oeste 41 Oeste 0 -- -- 42
2020-04-30 14:00:00 21.4 29 Oeste 46 Oeste 0 -- -- 40
2020-04-30 13:00:00 21 30 Oeste 52 Sudoeste 0 -- -- 41
2020-04-30 12:00:00 18.9 32 Oeste 46 Oeste 0 -- -- 44
2020-04-30 11:00:00 18.9 27 Oeste 47 Oeste 0 -- -- 51
2020-04-30 10:00:00 17.3 7 Oeste 15 Oeste 0 -- -- 65
2020-04-30 09:00:00 16.4 8 Noroeste 18 Noroeste 0 -- -- 66
2020-04-30 08:00:00 15.8 9 Noroeste 15 Noroeste 0 -- -- 66
2020-04-30 07:00:00 15.2 5 Noroeste 14 Noroeste 0 -- -- 68
2020-04-30 06:00:00 14.6 4 Norte 19 Oeste 0 -- -- 68
2020-04-30 05:00:00 15 5 Norte 20 Sudoeste 0 -- -- 66
2020-04-30 04:00:00 14.6 3 Oeste 9 Sudoeste 0 -- -- 68
2020-04-30 03:00:00 14.9 3 Noroeste 14 Oeste 0 -- -- 72
2020-04-30 02:00:00 15.1 3 Noroeste 5 Noroeste 0 -- -- 74
2020-04-30 01:00:00 15.5 2 Oeste 8 Oeste 0 -- -- 75
2020-04-30 00:00:00 17 9 Oeste 21 Noroeste 0 -- -- 66
2020-04-29 23:00:00 18 6 Este 16 Sudeste 0 -- -- 57
2020-04-29 22:00:00 19.1 10 Sudeste 16 Sudeste 0 -- -- 53
2020-04-29 21:00:00 19.7 10 Este 13 Este 0 -- -- 52
2020-04-29 20:00:00 21.6 8 Nordeste 15 Norte 0 -- -- 47
2020-04-29 19:00:00 22.8 9 Nordeste 19 Nordeste 0 -- -- 44
2020-04-29 18:00:00 23.1 6 Nordeste 30 Oeste 0 -- -- 42
2020-04-29 17:00:00 23 11 Sudoeste 31 Oeste 0 -- -- 39
2020-04-29 16:00:00 22.7 11 Oeste 25 Oeste 0 -- -- 38
2020-04-29 15:00:00 21.8 10 Oeste 21 Oeste 0 -- -- 39
2020-04-29 14:00:00 20.7 13 Oeste 28 Oeste 0 -- -- 41
2020-04-29 13:00:00 19.7 11 Noroeste 30 Oeste 0 -- -- 48
2020-04-29 12:00:00 18.8 17 Oeste 28 Oeste 0 -- -- 50
2020-04-29 11:00:00 17.2 14 Oeste 22 Oeste 0 -- -- 57
2020-04-29 10:00:00 14.9 4 Sudoeste 13 Sur 0 -- -- 65
2020-04-29 09:00:00 13.1 3 Oeste 8 Norte 0 -- -- 71
2020-04-29 08:00:00 11.3 4 Noroeste 8 Noroeste 0 -- -- 75
2020-04-29 07:00:00 10.7 0 Calma 6 Oeste 0 -- -- 76
2020-04-29 06:00:00 10.3 0 Calma 6 Oeste 0 -- -- 78
2020-04-29 05:00:00 9.8 3 Noroeste 9 Sur 0 -- -- 84
2020-04-29 04:00:00 11.3 4 Sur 6 Sur 0 -- -- 77
2020-04-29 03:00:00 12.1 2 Oeste 5 Nordeste 0 -- -- 71
2020-04-29 02:00:00 13 0 Calma 5 Noroeste 0 -- -- 66
2020-04-29 01:00:00 13.2 0 Calma 5 Oeste 0 -- -- 68
2020-04-29 00:00:00 15 4 Sudoeste 8 Noroeste 0 -- -- 60